Time;durP1;ratioP1;P1;durP2;ratioP2;P2;SDS_P1;SDS_P2;PMS_P1;PMS_P2;Temp;Humidity;BMP_temperature;BMP_pressure;BME280_temperature;BME280_humidity;BME280_pressure;Samples;Min_cycle;Max_cycle;Signal;HPM_P1;HPM_P2
2023/06/25 00:02:42;0.00;0.00;0.62;0.00;0.00;0.62;6.77;6.07;;;32.70;26.90;;;;;;2256850;61;20360;-65
2023/06/25 00:05:27;0.00;0.00;0.62;0.00;0.00;0.62;7.07;6.47;;;32.60;26.90;;;;;;2260279;61;20376;-64
2023/06/25 00:08:11;0.00;0.00;0.62;0.00;0.00;0.62;8.07;7.37;;;32.60;26.90;;;;;;2259998;61;20799;-64
2023/06/25 00:10:58;0.00;0.00;0.62;0.00;0.00;0.62;7.30;6.60;;;32.60;26.90;;;;;;2260056;61;20385;-64
2023/06/25 00:13:42;0.00;0.00;0.62;0.00;0.00;0.62;7.37;6.67;;;32.60;26.90;;;;;;2260262;61;20530;-64
2023/06/25 00:16:29;0.00;0.00;0.62;0.00;0.00;0.62;6.90;6.30;;;32.70;26.90;;;;;;2260224;61;20412;-64
2023/06/25 00:19:17;0.00;0.00;0.62;0.00;0.00;0.62;6.80;6.20;;;32.70;26.90;;;;;;2259706;61;20779;-64
2023/06/25 00:22:02;0.00;0.00;0.62;0.00;0.00;0.62;7.03;6.40;;;32.60;26.90;;;;;;2259815;61;20369;-65
2023/06/25 00:24:46;0.00;0.00;0.62;0.00;0.00;0.62;7.73;6.93;;;32.60;26.90;;;;;;2260093;61;20360;-65
2023/06/25 00:27:32;0.00;0.00;0.62;0.00;0.00;0.62;7.43;6.83;;;32.60;26.90;;;;;;2260023;61;20416;-65
2023/06/25 00:30:17;0.00;0.00;0.62;0.00;0.00;0.62;7.97;7.27;;;32.60;26.90;;;;;;2256405;61;20931;-64
2023/06/25 00:33:02;0.00;0.00;0.62;0.00;0.00;0.62;7.20;6.60;;;32.60;26.90;;;;;;2257095;61;20357;-65
2023/06/25 00:36:06;0.00;0.00;0.62;0.00;0.00;0.62;7.77;7.07;;;32.60;26.90;;;;;;2260195;61;20361;-65
2023/06/25 00:38:50;0.00;0.00;0.62;0.00;0.00;0.62;6.87;6.27;;;32.60;27.00;;;;;;2259654;61;20368;-65
2023/06/25 00:41:35;0.00;0.00;0.62;0.00;0.00;0.62;6.97;6.37;;;32.60;26.90;;;;;;2260352;61;20852;-65
2023/06/25 00:44:22;0.00;0.00;0.62;0.00;0.00;0.62;8.37;7.57;;;32.60;27.00;;;;;;2259889;61;20883;-64
2023/06/25 00:47:12;0.00;0.00;0.62;0.00;0.00;0.62;7.40;6.80;;;32.60;27.00;;;;;;2256829;61;20427;-65
2023/06/25 00:49:56;0.00;0.00;0.62;0.00;0.00;0.62;6.53;6.03;;;32.60;27.00;;;;;;2259525;61;20982;-65
2023/06/25 00:52:41;0.00;0.00;0.62;0.00;0.00;0.62;7.90;7.07;;;32.60;27.00;;;;;;2256841;61;20400;-65
2023/06/25 00:55:26;0.00;0.00;0.62;0.00;0.00;0.62;8.13;7.43;;;32.60;27.00;;;;;;2260054;61;20879;-65
2023/06/25 00:58:10;0.00;0.00;0.62;0.00;0.00;0.62;7.20;6.70;;;32.60;27.00;;;;;;2256780;61;20392;-67
2023/06/25 01:00:59;0.00;0.00;0.62;0.00;0.00;0.62;8.20;7.40;;;32.60;27.00;;;;;;2260210;61;20531;-69
2023/06/25 01:03:54;0.00;0.00;0.62;0.00;0.00;0.62;7.87;7.20;;;32.60;27.00;;;;;;2256864;61;20385;-65
2023/06/25 01:06:47;0.00;0.00;0.62;0.00;0.00;0.62;7.10;6.50;;;32.60;27.10;;;;;;2256704;61;20450;-64
2023/06/25 01:09:32;0.00;0.00;0.62;0.00;0.00;0.62;7.23;6.63;;;32.60;27.00;;;;;;2256548;61;20365;-65
2023/06/25 01:12:17;0.00;0.00;0.62;0.00;0.00;0.62;7.70;6.90;;;32.50;27.00;;;;;;2260103;61;20895;-64
2023/06/25 01:15:02;0.00;0.00;0.62;0.00;0.00;0.62;7.10;6.50;;;32.60;27.00;;;;;;2256879;61;20369;-65
2023/06/25 01:17:48;0.00;0.00;0.62;0.00;0.00;0.62;7.50;6.83;;;32.60;27.00;;;;;;2259830;61;20412;-64
2023/06/25 01:20:38;0.00;0.00;0.62;0.00;0.00;0.62;7.37;6.77;;;32.50;27.00;;;;;;2259932;61;20405;-65
2023/06/25 01:23:24;0.00;0.00;0.62;0.00;0.00;0.62;7.30;6.67;;;32.50;27.00;;;;;;2260265;61;20910;-66
2023/06/25 01:26:09;0.00;0.00;0.62;0.00;0.00;0.62;7.00;6.30;;;32.50;27.00;;;;;;2260040;61;20428;-66
2023/06/25 01:28:55;0.00;0.00;0.62;0.00;0.00;0.62;7.07;6.47;;;32.50;27.00;;;;;;2256229;61;20445;-65
2023/06/25 01:31:40;0.00;0.00;0.62;0.00;0.00;0.62;7.20;6.60;;;32.50;27.00;;;;;;2260050;61;20838;-65
2023/06/25 01:34:25;0.00;0.00;0.62;0.00;0.00;0.62;8.67;7.87;;;32.50;27.00;;;;;;2260166;61;20396;-65
2023/06/25 01:37:11;0.00;0.00;0.62;0.00;0.00;0.62;7.07;6.47;;;32.50;27.00;;;;;;2259897;61;20388;-65
2023/06/25 01:39:58;0.00;0.00;0.62;0.00;0.00;0.62;6.83;6.23;;;32.50;27.00;;;;;;2259320;61;20431;-65
2023/06/25 01:42:45;0.00;0.00;0.62;0.00;0.00;0.62;7.90;7.20;;;32.50;27.00;;;;;;2260042;61;21077;-65
2023/06/25 01:45:30;0.00;0.00;0.62;0.00;0.00;0.62;6.10;5.60;;;32.50;27.00;;;;;;2259937;61;20419;-65
2023/06/25 01:48:15;0.00;0.00;0.62;0.00;0.00;0.62;6.77;6.17;;;32.50;27.00;;;;;;2259710;61;20894;-66
2023/06/25 01:51:00;0.00;0.00;0.62;0.00;0.00;0.62;6.37;5.87;;;32.50;27.00;;;;;;2259683;61;20432;-64
2023/06/25 01:53:44;0.00;0.00;0.62;0.00;0.00;0.62;7.40;6.70;;;32.50;27.00;;;;;;2256796;61;20950;-64
2023/06/25 01:56:30;0.00;0.00;0.62;0.00;0.00;0.62;6.60;6.10;;;32.50;27.00;;;;;;2260636;61;20373;-65
2023/06/25 01:59:15;0.00;0.00;0.62;0.00;0.00;0.62;6.57;5.97;;;32.50;27.00;;;;;;2259668;61;20879;-65
2023/06/25 02:02:01;0.00;0.00;0.62;0.00;0.00;0.62;7.00;6.40;;;32.50;27.00;;;;;;2257294;61;20405;-65
2023/06/25 02:04:45;0.00;0.00;0.62;0.00;0.00;0.62;7.20;6.60;;;32.50;27.00;;;;;;2260922;61;20364;-65
2023/06/25 02:07:30;0.00;0.00;0.62;0.00;0.00;0.62;6.90;6.30;;;32.50;27.00;;;;;;2256620;61;20358;-65
2023/06/25 02:10:15;0.00;0.00;0.62;0.00;0.00;0.62;7.20;6.57;;;32.50;27.00;;;;;;2253295;61;20435;-65
2023/06/25 02:13:01;0.00;0.00;0.62;0.00;0.00;0.62;7.27;6.67;;;32.40;27.00;;;;;;2253208;61;20378;-65
2023/06/25 02:15:46;0.00;0.00;0.62;0.00;0.00;0.62;6.63;6.03;;;32.40;27.00;;;;;;2255919;61;20450;-64
2023/06/25 02:18:36;0.00;0.00;0.62;0.00;0.00;0.62;7.27;6.67;;;32.40;27.00;;;;;;2252929;61;20392;-65
2023/06/25 02:21:21;0.00;0.00;0.62;0.00;0.00;0.62;5.87;5.37;;;32.50;27.10;;;;;;2253149;61;20390;-66
2023/06/25 02:24:07;0.00;0.00;0.62;0.00;0.00;0.62;7.03;6.43;;;32.40;27.00;;;;;;2256504;61;20908;-66
2023/06/25 02:26:52;0.00;0.00;0.62;0.00;0.00;0.62;6.70;6.10;;;32.40;27.00;;;;;;2253544;61;20405;-65
2023/06/25 02:29:38;0.00;0.00;0.62;0.00;0.00;0.62;6.87;6.27;;;32.40;27.00;;;;;;2255916;61;20389;-65
2023/06/25 02:32:22;0.00;0.00;0.62;0.00;0.00;0.62;7.07;6.47;;;32.40;27.00;;;;;;2256712;61;20782;-65
2023/06/25 02:35:08;0.00;0.00;0.62;0.00;0.00;0.62;6.80;6.30;;;32.40;27.00;;;;;;2256546;61;20923;-63
2023/06/25 02:37:53;0.00;0.00;0.62;0.00;0.00;0.62;6.77;6.17;;;32.40;27.00;;;;;;2256414;61;20398;-62
2023/06/25 02:40:37;0.00;0.00;0.62;0.00;0.00;0.62;6.40;5.90;;;32.40;27.00;;;;;;2253220;61;20440;-65
2023/06/25 02:43:22;0.00;0.00;0.62;0.00;0.00;0.62;6.17;5.67;;;32.40;27.00;;;;;;2256127;61;20362;-66
2023/06/25 02:46:09;0.00;0.00;0.62;0.00;0.00;0.62;6.27;5.77;;;32.40;27.00;;;;;;2253122;61;20769;-65
2023/06/25 02:48:54;0.00;0.00;0.62;0.00;0.00;0.62;6.03;5.43;;;32.40;27.00;;;;;;2253130;61;20439;-65
2023/06/25 02:51:40;0.00;0.00;0.62;0.00;0.00;0.62;5.77;5.17;;;32.40;27.00;;;;;;2253107;61;20381;-64
2023/06/25 02:54:24;0.00;0.00;0.62;0.00;0.00;0.62;5.97;5.47;;;32.40;27.60;;;;;;2256572;61;20365;-65
2023/06/25 02:57:09;0.00;0.00;0.62;0.00;0.00;0.62;5.30;4.80;;;32.40;27.00;;;;;;2256060;61;20890;-65
2023/06/25 02:59:54;0.00;0.00;0.62;0.00;0.00;0.62;5.60;5.10;;;32.30;27.00;;;;;;2252769;61;20381;-65
2023/06/25 03:02:40;0.00;0.00;0.62;0.00;0.00;0.62;5.43;5.03;;;32.30;27.00;;;;;;2253317;61;20362;-65
2023/06/25 03:05:25;0.00;0.00;0.62;0.00;0.00;0.62;5.90;5.30;;;32.30;27.00;;;;;;2253775;61;20401;-65
2023/06/25 03:08:10;0.00;0.00;0.62;0.00;0.00;0.62;4.87;4.47;;;32.30;27.00;;;;;;2259796;61;20439;-65
2023/06/25 03:10:55;0.00;0.00;0.62;0.00;0.00;0.62;6.20;5.70;;;32.30;27.00;;;;;;2257174;61;20475;-65
2023/06/25 03:13:40;0.00;0.00;0.62;0.00;0.00;0.62;5.07;4.40;;;32.30;27.00;;;;;;2260276;61;20364;-65
2023/06/25 03:16:24;0.00;0.00;0.62;0.00;0.00;0.62;5.77;5.30;;;32.30;27.00;;;;;;2257047;61;20896;-66
2023/06/25 03:19:11;0.00;0.00;0.62;0.00;0.00;0.62;5.60;5.03;;;32.30;27.00;;;;;;2256333;61;20357;-65
2023/06/25 03:21:56;0.00;0.00;0.62;0.00;0.00;0.62;6.13;5.53;;;32.30;27.00;;;;;;2257374;61;20450;-64
2023/06/25 03:24:41;0.00;0.00;0.62;0.00;0.00;0.62;5.60;5.10;;;32.30;27.00;;;;;;2260396;61;20871;-65
2023/06/25 03:27:26;0.00;0.00;0.62;0.00;0.00;0.62;5.20;4.80;;;32.30;27.00;;;;;;2260124;61;20438;-65
2023/06/25 03:30:10;0.00;0.00;0.62;0.00;0.00;0.62;5.40;4.90;;;32.30;27.00;;;;;;2260069;61;20511;-63
2023/06/25 03:32:55;0.00;0.00;0.62;0.00;0.00;0.62;5.13;4.67;;;32.30;27.00;;;;;;2257330;61;20416;-66
2023/06/25 03:35:42;0.00;0.00;0.62;0.00;0.00;0.62;5.30;4.80;;;32.20;26.90;;;;;;2257099;61;20449;-63
2023/06/25 03:38:28;0.00;0.00;0.62;0.00;0.00;0.62;5.53;5.07;;;32.20;27.00;;;;;;2254014;61;20393;-62
2023/06/25 03:41:14;0.00;0.00;0.62;0.00;0.00;0.62;5.90;5.47;;;32.30;27.00;;;;;;2256797;61;20428;-65
2023/06/25 03:43:59;0.00;0.00;0.62;0.00;0.00;0.62;5.23;4.80;;;32.20;27.00;;;;;;2257354;61;20496;-64
2023/06/25 03:46:43;0.00;0.00;0.62;0.00;0.00;0.62;6.50;5.90;;;32.20;26.90;;;;;;2257206;61;20419;-63
2023/06/25 03:49:29;0.00;0.00;0.62;0.00;0.00;0.62;6.03;5.53;;;32.20;26.90;;;;;;2256490;61;20449;-64
2023/06/25 03:52:15;0.00;0.00;0.62;0.00;0.00;0.62;6.97;6.27;;;32.20;26.90;;;;;;2260139;61;20491;-65
2023/06/25 03:55:00;0.00;0.00;0.62;0.00;0.00;0.62;5.43;5.03;;;32.20;26.90;;;;;;2260156;61;20369;-65
2023/06/25 03:57:45;0.00;0.00;0.62;0.00;0.00;0.62;5.53;5.10;;;32.20;26.90;;;;;;2256682;61;20439;-65
2023/06/25 04:00:29;0.00;0.00;0.62;0.00;0.00;0.62;6.27;5.77;;;32.20;26.90;;;;;;2256446;61;20384;-65
2023/06/25 04:03:14;0.00;0.00;0.62;0.00;0.00;0.62;5.33;4.90;;;32.20;27.00;;;;;;2260208;61;20369;-65
2023/06/25 04:05:59;0.00;0.00;0.62;0.00;0.00;0.62;5.63;5.13;;;32.20;26.90;;;;;;2260243;61;20396;-65
2023/06/25 04:08:45;0.00;0.00;0.62;0.00;0.00;0.62;5.07;4.60;;;32.20;27.50;;;;;;2259983;61;20456;-66
2023/06/25 04:11:30;0.00;0.00;0.62;0.00;0.00;0.62;5.90;5.30;;;32.20;26.90;;;;;;2256811;61;20903;-65
2023/06/25 04:14:15;0.00;0.00;0.62;0.00;0.00;0.62;5.33;4.83;;;32.20;26.90;;;;;;2256886;61;20401;-65
2023/06/25 04:17:00;0.00;0.00;0.62;0.00;0.00;0.62;5.93;5.43;;;32.20;27.00;;;;;;2256978;61;20520;-65
2023/06/25 04:19:45;0.00;0.00;0.62;0.00;0.00;0.62;5.77;5.27;;;32.10;26.90;;;;;;2256478;61;20610;-65
2023/06/25 04:22:30;0.00;0.00;0.62;0.00;0.00;0.62;6.40;5.40;;;32.20;27.00;;;;;;2260322;61;20887;-66
2023/06/25 04:25:16;0.00;0.00;0.62;0.00;0.00;0.62;5.37;4.87;;;32.20;26.90;;;;;;2257180;61;21008;-65
2023/06/25 04:28:00;0.00;0.00;0.62;0.00;0.00;0.62;5.40;4.90;;;32.10;26.90;;;;;;2260089;61;20373;-65
2023/06/25 04:30:45;0.00;0.00;0.62;0.00;0.00;0.62;5.00;4.50;;;32.10;26.90;;;;;;2256657;61;20384;-65
2023/06/25 04:33:30;0.00;0.00;0.62;0.00;0.00;0.62;5.27;4.77;;;32.10;26.90;;;;;;2256713;61;20381;-65
2023/06/25 04:36:16;0.00;0.00;0.62;0.00;0.00;0.62;5.80;5.30;;;32.20;26.90;;;;;;2256755;61;20778;-65
2023/06/25 04:39:02;0.00;0.00;0.62;0.00;0.00;0.62;5.20;4.70;;;32.10;26.90;;;;;;2256615;61;20470;-62
2023/06/25 04:41:51;0.00;0.00;0.62;0.00;0.00;0.62;5.90;5.40;;;32.10;26.90;;;;;;2256684;61;20420;-63
2023/06/25 04:44:35;0.00;0.00;0.62;0.00;0.00;0.62;5.37;4.87;;;32.10;26.90;;;;;;2257177;61;20449;-63
2023/06/25 04:47:20;0.00;0.00;0.62;0.00;0.00;0.62;4.90;4.40;;;32.10;26.90;;;;;;2257101;61;20608;-63
2023/06/25 04:50:06;0.00;0.00;0.62;0.00;0.00;0.62;5.20;4.70;;;32.10;26.90;;;;;;2259502;61;20388;-63
2023/06/25 04:52:54;0.00;0.00;0.62;0.00;0.00;0.62;4.90;4.40;;;32.10;26.90;;;;;;2260031;61;20369;-63
2023/06/25 04:55:39;0.00;0.00;0.62;0.00;0.00;0.62;5.67;4.60;;;32.10;26.90;;;;;;2260005;61;20412;-62
2023/06/25 04:58:25;0.00;0.00;0.62;0.00;0.00;0.62;4.90;4.50;;;32.10;26.90;;;;;;2259374;61;20436;-62
2023/06/25 05:01:09;0.00;0.00;0.62;0.00;0.00;0.62;4.90;4.50;;;32.10;26.90;;;;;;2257088;61;20958;-63
2023/06/25 05:03:54;0.00;0.00;0.62;0.00;0.00;0.62;5.33;4.87;;;32.10;26.90;;;;;;2259851;61;20360;-63
2023/06/25 05:06:38;0.00;0.00;0.62;0.00;0.00;0.62;4.77;4.27;;;32.10;26.90;;;;;;2260093;61;20427;-64
2023/06/25 05:09:24;0.00;0.00;0.62;0.00;0.00;0.62;4.73;4.33;;;32.10;26.90;;;;;;2259714;61;20499;-64
2023/06/25 05:12:09;0.00;0.00;0.62;0.00;0.00;0.62;6.27;4.57;;;32.10;26.90;;;;;;2259969;61;20365;-65
2023/06/25 05:14:54;0.00;0.00;0.62;0.00;0.00;0.62;4.63;4.23;;;32.10;26.80;;;;;;2260034;61;20423;-66
2023/06/25 05:17:39;0.00;0.00;0.62;0.00;0.00;0.62;4.67;4.27;;;32.10;26.90;;;;;;2259733;61;20392;-65
2023/06/25 05:20:24;0.00;0.00;0.62;0.00;0.00;0.62;4.63;4.23;;;32.10;26.80;;;;;;2259465;61;20384;-65
2023/06/25 05:23:09;0.00;0.00;0.62;0.00;0.00;0.62;4.30;3.90;;;32.10;26.80;;;;;;2260118;61;20360;-65
2023/06/25 05:25:54;0.00;0.00;0.62;0.00;0.00;0.62;4.27;3.87;;;32.10;26.80;;;;;;2259649;61;20780;-65
2023/06/25 05:28:38;0.00;0.00;0.62;0.00;0.00;0.62;4.10;3.80;;;32.10;26.80;;;;;;2259741;61;20408;-65
2023/06/25 05:31:25;0.00;0.00;0.62;0.00;0.00;0.62;4.20;3.80;;;32.10;26.80;;;;;;2260122;61;20919;-65
2023/06/25 05:34:10;0.00;0.00;0.62;0.00;0.00;0.62;3.90;3.60;;;32.10;26.80;;;;;;2259886;61;20483;-66
2023/06/25 05:36:55;0.00;0.00;0.62;0.00;0.00;0.62;4.00;3.70;;;32.10;26.80;;;;;;2259815;61;20373;-65
2023/06/25 05:39:39;0.00;0.00;0.62;0.00;0.00;0.62;4.30;3.90;;;32.10;26.80;;;;;;2259353;61;20463;-65
2023/06/25 05:42:25;0.00;0.00;0.62;0.00;0.00;0.62;3.63;3.33;;;32.10;26.80;;;;;;2259925;61;20381;-66
2023/06/25 05:45:10;0.00;0.00;0.62;0.00;0.00;0.62;4.10;3.70;;;32.10;27.10;;;;;;2260060;61;20368;-65
2023/06/25 05:47:56;0.00;0.00;0.62;0.00;0.00;0.62;4.53;4.13;;;32.10;26.80;;;;;;2259540;61;20412;-65
2023/06/25 05:50:41;0.00;0.00;0.62;0.00;0.00;0.62;4.43;4.03;;;32.10;27.00;;;;;;2259815;61;20400;-65
2023/06/25 05:53:25;0.00;0.00;0.62;0.00;0.00;0.62;4.40;4.00;;;32.10;26.80;;;;;;2260070;61;20687;-65
2023/06/25 05:56:10;0.00;0.00;0.62;0.00;0.00;0.62;4.73;4.33;;;32.10;26.80;;;;;;2259808;61;20415;-65
2023/06/25 05:58:55;0.00;0.00;0.62;0.00;0.00;0.62;4.40;4.00;;;32.10;26.80;;;;;;2259606;61;20961;-65
2023/06/25 06:01:39;0.00;0.00;0.62;0.00;0.00;0.62;4.60;4.20;;;32.10;26.80;;;;;;2259991;61;20938;-64
2023/06/25 06:04:25;0.00;0.00;0.62;0.00;0.00;0.62;4.53;4.13;;;32.10;26.80;;;;;;2260097;61;20414;-64
2023/06/25 06:07:10;0.00;0.00;0.62;0.00;0.00;0.62;4.07;3.70;;;32.10;26.90;;;;;;2259892;61;20967;-64
2023/06/25 06:09:54;0.00;0.00;0.62;0.00;0.00;0.62;4.10;3.80;;;32.10;26.90;;;;;;2259291;61;20477;-65
2023/06/25 06:12:39;0.00;0.00;0.62;0.00;0.00;0.62;3.50;3.20;;;32.10;26.90;;;;;;2259775;61;20365;-66
2023/06/25 06:15:23;0.00;0.00;0.62;0.00;0.00;0.62;3.50;3.20;;;32.10;26.80;;;;;;2259965;61;20400;-65
2023/06/25 06:18:08;0.00;0.00;0.62;0.00;0.00;0.62;5.60;3.73;;;32.10;26.80;;;;;;2259710;61;20393;-65
2023/06/25 06:20:54;0.00;0.00;0.62;0.00;0.00;0.62;3.93;3.63;;;32.10;26.90;;;;;;2259637;61;20416;-66
2023/06/25 06:23:39;0.00;0.00;0.62;0.00;0.00;0.62;4.40;4.00;;;32.10;26.90;;;;;;2259870;61;20408;-65
2023/06/25 06:26:24;0.00;0.00;0.62;0.00;0.00;0.62;4.17;3.77;;;32.10;26.90;;;;;;2259676;61;20384;-65
2023/06/25 06:29:08;0.00;0.00;0.62;0.00;0.00;0.62;4.43;4.03;;;32.10;26.90;;;;;;2259246;61;20365;-66
2023/06/25 06:31:53;0.00;0.00;0.62;0.00;0.00;0.62;3.83;3.53;;;32.10;26.90;;;;;;2259664;61;20369;-69
2023/06/25 06:34:38;0.00;0.00;0.62;0.00;0.00;0.62;4.40;4.00;;;32.10;26.90;;;;;;2259815;61;20460;-65
2023/06/25 06:37:24;0.00;0.00;0.62;0.00;0.00;0.62;4.07;3.70;;;32.10;26.90;;;;;;2259632;61;20429;-67
2023/06/25 06:40:09;0.00;0.00;0.62;0.00;0.00;0.62;3.70;3.40;;;32.10;26.90;;;;;;2259295;61;20480;-64
2023/06/25 06:42:54;0.00;0.00;0.62;0.00;0.00;0.62;3.67;3.37;;;32.10;26.90;;;;;;2260232;61;20423;-65
2023/06/25 06:45:39;0.00;0.00;0.62;0.00;0.00;0.62;3.87;3.47;;;32.10;26.90;;;;;;2257452;61;20404;-65
2023/06/25 06:48:24;0.00;0.00;0.62;0.00;0.00;0.62;4.37;3.97;;;32.10;26.90;;;;;;2259846;61;20396;-65
2023/06/25 06:51:09;0.00;0.00;0.62;0.00;0.00;0.62;4.20;3.80;;;32.10;26.90;;;;;;2260266;61;20431;-65
2023/06/25 06:53:55;0.00;0.00;0.62;0.00;0.00;0.62;5.07;3.93;;;32.10;26.90;;;;;;2260299;61;20836;-65
2023/06/25 06:56:39;0.00;0.00;0.62;0.00;0.00;0.62;4.33;3.93;;;32.10;26.90;;;;;;2260253;61;20368;-65
2023/06/25 06:59:24;0.00;0.00;0.62;0.00;0.00;0.62;4.10;3.30;;;32.10;26.90;;;;;;2260024;61;20364;-65
2023/06/25 07:02:09;0.00;0.00;0.62;0.00;0.00;0.62;4.30;3.90;;;32.10;26.90;;;;;;2260372;61;20364;-65
2023/06/25 07:04:53;0.00;0.00;0.62;0.00;0.00;0.62;4.63;3.77;;;32.10;26.90;;;;;;2260200;61;20798;-65
2023/06/25 07:07:38;0.00;0.00;0.62;0.00;0.00;0.62;3.67;3.37;;;32.10;26.90;;;;;;2260560;61;20868;-64
2023/06/25 07:10:24;0.00;0.00;0.62;0.00;0.00;0.62;3.73;3.43;;;32.10;26.90;;;;;;2259915;61;20919;-65
2023/06/25 07:13:09;0.00;0.00;0.62;0.00;0.00;0.62;4.13;3.77;;;32.10;26.90;;;;;;2260285;61;20863;-65
2023/06/25 07:15:54;0.00;0.00;0.62;0.00;0.00;0.62;4.80;3.73;;;32.10;26.90;;;;;;2260278;61;20357;-65
2023/06/25 07:18:38;0.00;0.00;0.62;0.00;0.00;0.62;4.30;4.00;;;32.10;26.90;;;;;;2259751;61;20393;-65
2023/06/25 07:21:23;0.00;0.00;0.62;0.00;0.00;0.62;4.13;3.77;;;32.20;27.50;;;;;;2260212;61;20427;-63
2023/06/25 07:24:08;0.00;0.00;0.62;0.00;0.00;0.62;4.20;3.47;;;32.10;26.90;;;;;;2260164;61;20830;-65
2023/06/25 07:26:54;0.00;0.00;0.62;0.00;0.00;0.62;3.87;3.57;;;32.10;26.90;;;;;;2260194;61;20384;-64
2023/06/25 07:29:39;0.00;0.00;0.62;0.00;0.00;0.62;4.27;3.87;;;32.20;27.60;;;;;;2259961;61;20844;-65
2023/06/25 07:32:23;0.00;0.00;0.62;0.00;0.00;0.62;4.00;3.60;;;32.20;27.00;;;;;;2259980;61;20364;-65
2023/06/25 07:35:09;0.00;0.00;0.62;0.00;0.00;0.62;4.20;3.80;;;32.10;26.90;;;;;;2260159;61;20456;-65
2023/06/25 07:37:53;0.00;0.00;0.62;0.00;0.00;0.62;3.17;2.90;;;32.10;27.00;;;;;;2260409;61;20388;-64
2023/06/25 07:40:38;0.00;0.00;0.62;0.00;0.00;0.62;4.00;3.60;;;32.20;27.00;;;;;;2260115;61;20388;-65
2023/06/25 07:43:24;0.00;0.00;0.62;0.00;0.00;0.62;3.40;3.10;;;32.10;27.00;;;;;;2260227;61;20405;-64
2023/06/25 07:46:09;0.00;0.00;0.62;0.00;0.00;0.62;4.00;3.60;;;32.10;27.00;;;;;;2260074;61;20925;-63
2023/06/25 07:48:53;0.00;0.00;0.62;0.00;0.00;0.62;3.10;2.80;;;32.20;27.00;;;;;;2259892;61;20360;-65
2023/06/25 07:51:38;0.00;0.00;0.62;0.00;0.00;0.62;4.60;3.20;;;32.10;27.00;;;;;;2260128;61;20385;-66
2023/06/25 07:54:22;0.00;0.00;0.62;0.00;0.00;0.62;3.50;3.20;;;32.10;27.00;;;;;;2260036;61;20389;-66
2023/06/25 07:57:07;0.00;0.00;0.62;0.00;0.00;0.62;3.50;3.20;;;32.10;27.00;;;;;;2257050;61;20364;-66
2023/06/25 07:59:53;0.00;0.00;0.62;0.00;0.00;0.62;4.43;4.03;;;32.10;27.00;;;;;;2259764;61;20380;-66
2023/06/25 08:02:38;0.00;0.00;0.62;0.00;0.00;0.62;3.20;2.90;;;32.20;27.00;;;;;;2260192;61;20415;-66
2023/06/25 08:05:22;0.00;0.00;0.62;0.00;0.00;0.62;3.50;3.20;;;32.10;27.00;;;;;;2256988;61;20396;-64
2023/06/25 08:08:07;0.00;0.00;0.62;0.00;0.00;0.62;3.33;3.03;;;32.10;27.00;;;;;;2259910;61;20373;-66
2023/06/25 08:10:52;0.00;0.00;0.62;0.00;0.00;0.62;3.53;3.23;;;32.20;27.10;;;;;;2259957;61;20424;-64
2023/06/25 08:13:37;0.00;0.00;0.62;0.00;0.00;0.62;3.43;3.13;;;32.20;27.60;;;;;;2260471;61;20453;-64
2023/06/25 08:16:23;0.00;0.00;0.62;0.00;0.00;0.62;3.60;3.30;;;32.20;27.10;;;;;;2259965;61;20365;-65
2023/06/25 08:19:08;0.00;0.00;0.62;0.00;0.00;0.62;3.40;3.10;;;32.20;27.10;;;;;;2259513;61;20385;-65
2023/06/25 08:21:53;0.00;0.00;0.62;0.00;0.00;0.62;3.33;3.03;;;32.20;27.10;;;;;;2260085;61;20380;-65
2023/06/25 08:24:37;0.00;0.00;0.62;0.00;0.00;0.62;3.17;2.87;;;32.20;27.10;;;;;;2260289;61;20369;-65
2023/06/25 08:27:22;0.00;0.00;0.62;0.00;0.00;0.62;3.67;3.10;;;32.20;27.10;;;;;;2260124;61;20381;-65
2023/06/25 08:30:07;0.00;0.00;0.62;0.00;0.00;0.62;3.57;3.27;;;32.20;27.50;;;;;;2259535;61;20484;-66
2023/06/25 08:32:54;0.00;0.00;0.62;0.00;0.00;0.62;3.67;3.37;;;32.20;27.10;;;;;;2259929;61;20935;-66
2023/06/25 08:35:39;0.00;0.00;0.62;0.00;0.00;0.62;3.77;3.40;;;32.20;27.10;;;;;;2260168;61;20465;-66
2023/06/25 08:38:25;0.00;0.00;0.62;0.00;0.00;0.62;3.67;3.37;;;32.20;27.20;;;;;;2259295;61;20392;-67
2023/06/25 08:41:09;0.00;0.00;0.62;0.00;0.00;0.62;3.23;2.93;;;32.20;27.20;;;;;;2259936;61;20483;-65
2023/06/25 08:43:54;0.00;0.00;0.62;0.00;0.00;0.62;3.07;2.77;;;32.20;27.20;;;;;;2260041;61;20411;-66
2023/06/25 08:46:47;0.00;0.00;0.62;0.00;0.00;0.62;3.33;3.03;;;32.20;27.20;;;;;;2260099;61;20425;-65
2023/06/25 08:49:35;0.00;0.00;0.62;0.00;0.00;0.62;2.93;2.60;;;32.20;27.20;;;;;;2259238;61;20357;-65
2023/06/25 08:52:20;0.00;0.00;0.62;0.00;0.00;0.62;2.90;2.70;;;32.20;27.20;;;;;;2259950;61;20396;-64
2023/06/25 08:55:09;0.00;0.00;0.62;0.00;0.00;0.62;3.20;2.90;;;32.20;27.20;;;;;;2259815;61;20411;-65
2023/06/25 08:57:54;0.00;0.00;0.62;0.00;0.00;0.62;3.10;2.80;;;32.20;27.20;;;;;;2256899;61;20388;-65
2023/06/25 09:00:39;0.00;0.00;0.62;0.00;0.00;0.62;2.70;2.50;;;32.20;27.20;;;;;;2259717;61;20481;-66
2023/06/25 09:03:23;0.00;0.00;0.62;0.00;0.00;0.62;3.40;3.10;;;32.20;27.20;;;;;;2259836;61;20361;-65
2023/06/25 09:06:14;0.00;0.00;0.62;0.00;0.00;0.62;3.90;3.60;;;32.20;27.20;;;;;;2260257;61;20415;-64
2023/06/25 09:09:01;0.00;0.00;0.62;0.00;0.00;0.62;2.90;2.70;;;32.20;27.20;;;;;;2259356;61;20381;-65
2023/06/25 09:11:46;0.00;0.00;0.62;0.00;0.00;0.62;2.87;2.60;;;32.20;27.20;;;;;;2259851;61;20375;-65
2023/06/25 09:14:32;0.00;0.00;0.62;0.00;0.00;0.62;3.90;3.03;;;32.20;27.20;;;;;;2259993;61;20372;-65
2023/06/25 09:17:20;0.00;0.00;0.62;0.00;0.00;0.62;3.00;2.70;;;32.20;27.20;;;;;;2259848;61;20425;-65
2023/06/25 09:20:07;0.00;0.00;0.62;0.00;0.00;0.62;2.73;2.50;;;32.30;27.20;;;;;;2259932;61;20469;-64
2023/06/25 09:22:57;0.00;0.00;0.62;0.00;0.00;0.62;3.10;2.80;;;32.30;27.30;;;;;;2259725;61;20380;-68
2023/06/25 09:25:41;0.00;0.00;0.62;0.00;0.00;0.62;3.03;2.73;;;32.30;27.20;;;;;;2259881;61;20422;-64
2023/06/25 09:28:26;0.00;0.00;0.62;0.00;0.00;0.62;3.17;2.87;;;32.30;27.30;;;;;;2259593;61;20396;-64
2023/06/25 09:31:14;0.00;0.00;0.62;0.00;0.00;0.62;3.00;2.70;;;32.30;27.30;;;;;;2259747;61;20393;-66
2023/06/25 09:34:04;0.00;0.00;0.62;0.00;0.00;0.62;3.13;2.90;;;32.30;27.20;;;;;;2260171;61;20365;-66
2023/06/25 09:36:49;0.00;0.00;0.62;0.00;0.00;0.62;3.00;2.70;;;32.30;27.30;;;;;;2259806;61;20364;-64
2023/06/25 09:39:35;0.00;0.00;0.62;0.00;0.00;0.62;2.90;2.60;;;32.30;27.30;;;;;;2259367;61;20938;-65
2023/06/25 09:42:20;0.00;0.00;0.62;0.00;0.00;0.62;3.00;2.70;;;32.30;27.30;;;;;;2260101;61;20413;-65
2023/06/25 09:45:10;0.00;0.00;0.62;0.00;0.00;0.62;2.73;2.53;;;32.30;27.30;;;;;;2259665;61;20364;-65
2023/06/25 09:47:57;0.00;0.00;0.62;0.00;0.00;0.62;2.67;2.47;;;32.40;27.30;;;;;;2259656;61;20369;-64
2023/06/25 09:50:47;0.00;0.00;0.62;0.00;0.00;0.62;3.13;2.83;;;32.30;27.30;;;;;;2259841;61;20407;-65
2023/06/25 09:53:35;0.00;0.00;0.62;0.00;0.00;0.62;3.20;2.90;;;32.40;27.30;;;;;;2259991;61;20420;-66
2023/06/25 09:56:22;0.00;0.00;0.62;0.00;0.00;0.62;2.90;2.60;;;32.40;27.30;;;;;;2259782;61;20465;-64
2023/06/25 09:59:08;0.00;0.00;0.62;0.00;0.00;0.62;2.80;2.50;;;32.40;27.30;;;;;;2258893;61;20440;-66
2023/06/25 10:01:53;0.00;0.00;0.62;0.00;0.00;0.62;3.00;2.70;;;32.40;27.30;;;;;;2259895;61;20392;-65
2023/06/25 10:04:38;0.00;0.00;0.62;0.00;0.00;0.62;2.87;2.67;;;32.40;27.40;;;;;;2259971;61;20364;-64
2023/06/25 10:07:24;0.00;0.00;0.62;0.00;0.00;0.62;3.17;2.87;;;32.40;27.30;;;;;;2259596;61;20377;-66
2023/06/25 10:10:20;0.00;0.00;0.62;0.00;0.00;0.62;3.43;3.13;;;32.40;27.40;;;;;;2259433;61;20483;-65
2023/06/25 10:13:06;0.00;0.00;0.62;0.00;0.00;0.62;3.30;3.00;;;32.40;27.40;;;;;;2259723;61;20847;-65
2023/06/25 10:15:57;0.00;0.00;0.62;0.00;0.00;0.62;2.70;2.47;;;32.40;27.40;;;;;;2260064;61;20369;-65
2023/06/25 10:18:42;0.00;0.00;0.62;0.00;0.00;0.62;2.40;2.20;;;32.40;27.40;;;;;;2259935;61;20477;-67
2023/06/25 10:21:27;0.00;0.00;0.62;0.00;0.00;0.62;2.73;2.50;;;32.40;27.40;;;;;;2260107;61;20470;-65
2023/06/25 10:24:12;0.00;0.00;0.62;0.00;0.00;0.62;3.10;2.87;;;32.50;27.40;;;;;;2260417;61;20456;-65
2023/06/25 10:26:56;0.00;0.00;0.62;0.00;0.00;0.62;2.70;2.50;;;32.40;27.40;;;;;;2260490;61;20410;-66
2023/06/25 10:29:42;0.00;0.00;0.62;0.00;0.00;0.62;2.87;2.67;;;32.50;27.50;;;;;;2259725;61;20381;-66
2023/06/25 10:32:29;0.00;0.00;0.62;0.00;0.00;0.62;3.03;2.73;;;32.50;27.50;;;;;;2260385;61;20369;-65
2023/06/25 10:35:18;0.00;0.00;0.62;0.00;0.00;0.62;3.23;2.93;;;32.50;27.50;;;;;;2260703;61;20416;-65
2023/06/25 10:38:03;0.00;0.00;0.62;0.00;0.00;0.62;2.80;2.60;;;32.50;27.50;;;;;;2260138;61;20384;-65
2023/06/25 10:40:49;0.00;0.00;0.62;0.00;0.00;0.62;3.20;2.70;;;32.50;27.50;;;;;;2260223;61;20392;-65
2023/06/25 10:43:37;0.00;0.00;0.62;0.00;0.00;0.62;2.87;2.60;;;32.50;27.50;;;;;;2257079;61;20411;-65
2023/06/25 10:46:29;0.00;0.00;0.62;0.00;0.00;0.62;2.80;2.60;;;32.50;27.50;;;;;;2260141;61;20361;-64
2023/06/25 10:49:19;0.00;0.00;0.62;0.00;0.00;0.62;3.30;3.00;;;32.50;27.50;;;;;;2260194;61;20361;-62
2023/06/25 10:52:06;0.00;0.00;0.62;0.00;0.00;0.62;2.80;2.60;;;32.50;27.50;;;;;;2260095;61;20357;-66
2023/06/25 10:54:54;0.00;0.00;0.62;0.00;0.00;0.62;2.60;2.40;;;32.50;27.50;;;;;;2260220;61;20823;-65